Suakin — ZCIL — position and weather

sailwx.info

Track history (hours):
 
Tides and Currents Weather Stations Pressure Air Temp Water Temp Dewpoint Dewpoint Depression Visibility Wind Speed Wind Dir Waves Ship Positions

Suakin

Last reported at 2014-Sep-01 07:20 UTC. Time now 2014-Sep-01 21:03 UTC.
Position N 43°42' E 007°20'.

Length 33 m; draft 2.5 m.

Type: Pleasure craft. MMSI: 319897000.

Date/timePositionNaut miles runAvg speedWind from/ knotsBaromVisibWave heightAir tempDewpointWater temp
2014-Sep-01 07:20N 43°42' E 007°20'1 1.1
2014-Sep-01 06:25N 43°42' E 007°19'0 0.0
2014-Sep-01 05:33N 43°42' E 007°19'0 0.0
2014-Sep-01 04:15N 43°42' E 007°19'0 0.0
2014-Sep-01 03:32N 43°42' E 007°19'0 0.0
2014-Sep-01 02:33N 43°42' E 007°19'0 0.0
2014-Sep-01 01:30N 43°42' E 007°19'0 0.0
2014-Sep-01 00:32N 43°42' E 007°19'0 0.0
2014-Aug-31 23:32N 43°42' E 007°19'0 0.0
2014-Aug-31 22:33N 43°42' E 007°19'0 0.0
2014-Aug-31 21:33N 43°42' E 007°19'0 0.0
2014-Aug-31 20:32N 43°42' E 007°19'0 0.0
2014-Aug-31 19:31N 43°42' E 007°19'0 0.0
2014-Aug-31 18:31N 43°42' E 007°19'0 0.0
2014-Aug-31 17:32N 43°42' E 007°19'5 4.9
2014-Aug-31 16:33N 43°38' E 007°23'11511.2
2014-Aug-31 06:15N 42°52' E 009°48'21 3.5
2014-Aug-31 00:20N 42°45' E 010°15'0 0.0
2014-Aug-30 20:29N 42°45' E 010°15'0 0.0
2014-Aug-30 19:33N 42°45' E 010°15'0 0.0
2014-Aug-30 18:32N 42°45' E 010°15'0 0.0
2014-Aug-30 17:33N 42°45' E 010°15'0 0.0
2014-Aug-30 16:33N 42°45' E 010°15'0 0.0
2014-Aug-30 15:33N 42°45' E 010°15'0 0.0
2014-Aug-30 14:33N 42°45' E 010°15'0 0.0
2014-Aug-30 13:31N 42°45' E 010°15'0 0.0
2014-Aug-30 12:33N 42°45' E 010°15'0 0.0
2014-Aug-30 11:32N 42°45' E 010°15'0 0.0
2014-Aug-30 10:32N 42°45' E 010°15'0 0.0
2014-Aug-30 09:32N 42°45' E 010°15'0 0.0
2014-Aug-30 08:16N 42°45' E 010°15'0 0.0
2014-Aug-30 07:33N 42°45' E 010°15'0 0.0
2014-Aug-30 06:32N 42°45' E 010°15'0 0.0
2014-Aug-30 05:33N 42°45' E 010°15'0 0.0
2014-Aug-30 04:33N 42°45' E 010°15'0 0.0
2014-Aug-30 03:30N 42°45' E 010°15'0 0.0
2014-Aug-30 02:32N 42°45' E 010°15'0 0.0
2014-Aug-30 01:16N 42°45' E 010°15'0 0.0
2014-Aug-30 00:31N 42°45' E 010°15'0 0.0
2014-Aug-29 23:32N 42°45' E 010°15'0 0.0
2014-Aug-29 21:31N 42°45' E 010°15'0 0.0
2014-Aug-29 20:33N 42°45' E 010°15'0 0.0
2014-Aug-29 19:32N 42°45' E 010°15'0 0.0
2014-Aug-29 18:29N 42°45' E 010°15'291 9.7
2014-Aug-28 12:29N 39°16' E 014°44'78 9.9
2014-Aug-28 04:32N 38°10' E 015°37'  
Track history (hours):
 
Tides and Currents Weather Stations Pressure Air Temp Water Temp Dewpoint Dewpoint Depression Visibility Wind Speed Wind Dir Waves Ship Positions

Suakin

Last reported at 2014-Sep-01 07:20 UTC. Time now 2014-Sep-01 21:03 UTC.
Position N 43°42' E 007°20'.

Length 33 m; draft 2.5 m.

Type: Pleasure craft. MMSI: 319897000.

Date/timePositionNaut miles runAvg speedWind from/ knotsBaromVisibWave heightAir tempDewpointWater temp
2014-Sep-01 07:20N 43°42' E 007°20'1 1.1
2014-Sep-01 06:25N 43°42' E 007°19'0 0.0
2014-Sep-01 05:33N 43°42' E 007°19'0 0.0
2014-Sep-01 04:15N 43°42' E 007°19'0 0.0
2014-Sep-01 03:32N 43°42' E 007°19'0 0.0
2014-Sep-01 02:33N 43°42' E 007°19'0 0.0
2014-Sep-01 01:30N 43°42' E 007°19'0 0.0
2014-Sep-01 00:32N 43°42' E 007°19'0 0.0
2014-Aug-31 23:32N 43°42' E 007°19'0 0.0
2014-Aug-31 22:33N 43°42' E 007°19'0 0.0
2014-Aug-31 21:33N 43°42' E 007°19'0 0.0
2014-Aug-31 20:32N 43°42' E 007°19'0 0.0
2014-Aug-31 19:31N 43°42' E 007°19'0 0.0
2014-Aug-31 18:31N 43°42' E 007°19'0 0.0
2014-Aug-31 17:32N 43°42' E 007°19'5 4.9
2014-Aug-31 16:33N 43°38' E 007°23'11511.2
2014-Aug-31 06:15N 42°52' E 009°48'21 3.5
2014-Aug-31 00:20N 42°45' E 010°15'0 0.0
2014-Aug-30 20:29N 42°45' E 010°15'0 0.0
2014-Aug-30 19:33N 42°45' E 010°15'0 0.0
2014-Aug-30 18:32N 42°45' E 010°15'0 0.0
2014-Aug-30 17:33N 42°45' E 010°15'0 0.0
2014-Aug-30 16:33N 42°45' E 010°15'0 0.0
2014-Aug-30 15:33N 42°45' E 010°15'0 0.0
2014-Aug-30 14:33N 42°45' E 010°15'0 0.0
2014-Aug-30 13:31N 42°45' E 010°15'0 0.0
2014-Aug-30 12:33N 42°45' E 010°15'0 0.0
2014-Aug-30 11:32N 42°45' E 010°15'0 0.0
2014-Aug-30 10:32N 42°45' E 010°15'0 0.0
2014-Aug-30 09:32N 42°45' E 010°15'0 0.0
2014-Aug-30 08:16N 42°45' E 010°15'0 0.0
2014-Aug-30 07:33N 42°45' E 010°15'0 0.0
2014-Aug-30 06:32N 42°45' E 010°15'0 0.0
2014-Aug-30 05:33N 42°45' E 010°15'0 0.0
2014-Aug-30 04:33N 42°45' E 010°15'0 0.0
2014-Aug-30 03:30N 42°45' E 010°15'0 0.0
2014-Aug-30 02:32N 42°45' E 010°15'0 0.0
2014-Aug-30 01:16N 42°45' E 010°15'0 0.0
2014-Aug-30 00:31N 42°45' E 010°15'0 0.0
2014-Aug-29 23:32N 42°45' E 010°15'0 0.0
2014-Aug-29 21:31N 42°45' E 010°15'0 0.0
2014-Aug-29 20:33N 42°45' E 010°15'0 0.0
2014-Aug-29 19:32N 42°45' E 010°15'0 0.0
2014-Aug-29 18:29N 42°45' E 010°15'291 9.7
2014-Aug-28 12:29N 39°16' E 014°44'78 9.9
2014-Aug-28 04:32N 38°10' E 015°37'  

Dump ship's entire track history